sensor_id;sensor_type;location;lat;lon;timestamp;P1;durP1;ratioP1;P2;durP2;ratioP2
9801;SDS011;4940;50.900;4.672;2022-10-16T00:01:34;3.63;;;1.30;;
9801;SDS011;4940;50.900;4.672;2022-10-16T00:04:02;1.85;;;1.27;;
9801;SDS011;4940;50.900;4.672;2022-10-16T00:06:29;1.63;;;1.45;;
9801;SDS011;4940;50.900;4.672;2022-10-16T00:08:57;2.40;;;1.33;;
9801;SDS011;4940;50.900;4.672;2022-10-16T00:11:25;1.98;;;1.30;;
9801;SDS011;4940;50.900;4.672;2022-10-16T00:13:54;2.90;;;1.13;;
9801;SDS011;4940;50.900;4.672;2022-10-16T00:16:23;2.53;;;1.40;;
9801;SDS011;4940;50.900;4.672;2022-10-16T00:18:52;2.88;;;1.20;;
9801;SDS011;4940;50.900;4.672;2022-10-16T00:21:21;1.90;;;1.33;;
9801;SDS011;4940;50.900;4.672;2022-10-16T00:23:50;2.63;;;1.20;;
9801;SDS011;4940;50.900;4.672;2022-10-16T00:26:18;1.50;;;1.15;;
9801;SDS011;4940;50.900;4.672;2022-10-16T00:28:45;1.15;;;0.85;;
9801;SDS011;4940;50.900;4.672;2022-10-16T00:31:13;1.10;;;1.00;;
9801;SDS011;4940;50.900;4.672;2022-10-16T00:33:40;1.30;;;0.80;;
9801;SDS011;4940;50.900;4.672;2022-10-16T00:36:11;2.88;;;1.30;;
9801;SDS011;4940;50.900;4.672;2022-10-16T00:38:40;1.10;;;1.00;;
9801;SDS011;4940;50.900;4.672;2022-10-16T00:41:09;0.70;;;0.70;;
9801;SDS011;4940;50.900;4.672;2022-10-16T00:43:38;1.35;;;0.80;;
9801;SDS011;4940;50.900;4.672;2022-10-16T00:46:10;4.30;;;1.00;;
9801;SDS011;4940;50.900;4.672;2022-10-16T00:48:41;2.78;;;1.00;;
9801;SDS011;4940;50.900;4.672;2022-10-16T00:51:13;2.65;;;0.90;;
9801;SDS011;4940;50.900;4.672;2022-10-16T00:53:40;1.85;;;0.85;;
9801;SDS011;4940;50.900;4.672;2022-10-16T00:56:07;1.95;;;1.10;;
9801;SDS011;4940;50.900;4.672;2022-10-16T00:58:35;1.15;;;0.90;;
9801;SDS011;4940;50.900;4.672;2022-10-16T01:01:02;1.00;;;0.90;;
9801;SDS011;4940;50.900;4.672;2022-10-16T01:03:30;1.17;;;0.93;;
9801;SDS011;4940;50.900;4.672;2022-10-16T01:06:01;1.65;;;0.85;;
9801;SDS011;4940;50.900;4.672;2022-10-16T01:08:44;2.13;;;0.80;;
9801;SDS011;4940;50.900;4.672;2022-10-16T01:11:21;2.15;;;0.80;;
9801;SDS011;4940;50.900;4.672;2022-10-16T01:13:54;1.30;;;0.98;;
9801;SDS011;4940;50.900;4.672;2022-10-16T01:16:28;1.10;;;0.82;;
9801;SDS011;4940;50.900;4.672;2022-10-16T01:19:02;3.75;;;0.95;;
9801;SDS011;4940;50.900;4.672;2022-10-16T01:21:36;1.17;;;0.80;;
9801;SDS011;4940;50.900;4.672;2022-10-16T01:24:08;3.33;;;1.00;;
9801;SDS011;4940;50.900;4.672;2022-10-16T01:26:50;1.80;;;1.23;;
9801;SDS011;4940;50.900;4.672;2022-10-16T01:29:39;1.65;;;1.10;;
9801;SDS011;4940;50.900;4.672;2022-10-16T01:32:13;4.38;;;1.15;;
9801;SDS011;4940;50.900;4.672;2022-10-16T01:34:47;0.90;;;0.90;;
9801;SDS011;4940;50.900;4.672;2022-10-16T01:37:20;1.90;;;1.30;;
9801;SDS011;4940;50.900;4.672;2022-10-16T01:39:54;2.85;;;1.20;;
9801;SDS011;4940;50.900;4.672;2022-10-16T01:42:28;1.30;;;1.10;;
9801;SDS011;4940;50.900;4.672;2022-10-16T01:44:57;1.67;;;1.10;;
9801;SDS011;4940;50.900;4.672;2022-10-16T01:47:26;3.13;;;1.20;;
9801;SDS011;4940;50.900;4.672;2022-10-16T01:49:53;1.95;;;1.05;;
9801;SDS011;4940;50.900;4.672;2022-10-16T01:52:24;1.63;;;1.20;;
9801;SDS011;4940;50.900;4.672;2022-10-16T01:54:54;3.13;;;1.20;;
9801;SDS011;4940;50.900;4.672;2022-10-16T01:57:24;3.70;;;1.30;;
9801;SDS011;4940;50.900;4.672;2022-10-16T01:59:54;1.10;;;1.10;;
9801;SDS011;4940;50.900;4.672;2022-10-16T02:02:27;1.33;;;1.05;;
9801;SDS011;4940;50.900;4.672;2022-10-16T02:04:58;1.52;;;1.20;;
9801;SDS011;4940;50.900;4.672;2022-10-16T02:07:30;1.38;;;0.98;;
9801;SDS011;4940;50.900;4.672;2022-10-16T02:09:58;1.50;;;1.10;;
9801;SDS011;4940;50.900;4.672;2022-10-16T02:12:28;1.52;;;1.10;;
9801;SDS011;4940;50.900;4.672;2022-10-16T02:14:59;1.20;;;1.02;;
9801;SDS011;4940;50.900;4.672;2022-10-16T02:17:26;1.20;;;1.10;;
9801;SDS011;4940;50.900;4.672;2022-10-16T02:19:54;1.33;;;1.10;;
9801;SDS011;4940;50.900;4.672;2022-10-16T02:22:25;1.50;;;1.02;;
9801;SDS011;4940;50.900;4.672;2022-10-16T02:24:56;1.17;;;1.05;;
9801;SDS011;4940;50.900;4.672;2022-10-16T02:27:28;1.20;;;1.00;;
9801;SDS011;4940;50.900;4.672;2022-10-16T02:30:01;1.60;;;1.30;;
9801;SDS011;4940;50.900;4.672;2022-10-16T02:32:33;2.30;;;1.25;;
9801;SDS011;4940;50.900;4.672;2022-10-16T02:35:03;2.00;;;1.42;;
9801;SDS011;4940;50.900;4.672;2022-10-16T02:37:32;1.67;;;1.10;;
9801;SDS011;4940;50.900;4.672;2022-10-16T02:39:59;1.40;;;1.30;;
9801;SDS011;4940;50.900;4.672;2022-10-16T02:42:29;4.15;;;1.30;;
9801;SDS011;4940;50.900;4.672;2022-10-16T02:45:00;2.95;;;1.35;;
9801;SDS011;4940;50.900;4.672;2022-10-16T02:47:27;1.38;;;1.13;;
9801;SDS011;4940;50.900;4.672;2022-10-16T02:49:54;1.38;;;1.25;;
9801;SDS011;4940;50.900;4.672;2022-10-16T02:52:21;2.30;;;1.38;;
9801;SDS011;4940;50.900;4.672;2022-10-16T02:54:49;3.05;;;1.27;;
9801;SDS011;4940;50.900;4.672;2022-10-16T02:57:17;1.30;;;1.20;;
9801;SDS011;4940;50.900;4.672;2022-10-16T02:59:45;1.98;;;1.17;;
9801;SDS011;4940;50.900;4.672;2022-10-16T03:02:12;3.55;;;1.30;;
9801;SDS011;4940;50.900;4.672;2022-10-16T03:04:40;1.98;;;1.20;;
9801;SDS011;4940;50.900;4.672;2022-10-16T03:07:07;1.45;;;1.30;;
9801;SDS011;4940;50.900;4.672;2022-10-16T03:09:34;2.10;;;1.30;;
9801;SDS011;4940;50.900;4.672;2022-10-16T03:12:02;1.45;;;1.20;;
9801;SDS011;4940;50.900;4.672;2022-10-16T03:14:29;1.48;;;1.38;;
9801;SDS011;4940;50.900;4.672;2022-10-16T03:16:58;1.13;;;1.02;;
9801;SDS011;4940;50.900;4.672;2022-10-16T03:19:25;1.50;;;1.40;;
9801;SDS011;4940;50.900;4.672;2022-10-16T03:21:53;1.60;;;1.45;;
9801;SDS011;4940;50.900;4.672;2022-10-16T03:24:20;1.70;;;1.42;;
9801;SDS011;4940;50.900;4.672;2022-10-16T03:26:47;2.05;;;1.38;;
9801;SDS011;4940;50.900;4.672;2022-10-16T03:29:14;2.15;;;1.40;;
9801;SDS011;4940;50.900;4.672;2022-10-16T03:31:42;4.82;;;1.75;;
9801;SDS011;4940;50.900;4.672;2022-10-16T03:34:10;1.65;;;1.42;;
9801;SDS011;4940;50.900;4.672;2022-10-16T03:36:38;3.05;;;1.40;;
9801;SDS011;4940;50.900;4.672;2022-10-16T03:39:05;2.25;;;1.50;;
9801;SDS011;4940;50.900;4.672;2022-10-16T03:41:32;1.85;;;1.45;;
9801;SDS011;4940;50.900;4.672;2022-10-16T03:43:59;2.83;;;1.50;;
9801;SDS011;4940;50.900;4.672;2022-10-16T03:46:27;2.17;;;1.40;;
9801;SDS011;4940;50.900;4.672;2022-10-16T03:48:54;1.52;;;1.40;;
9801;SDS011;4940;50.900;4.672;2022-10-16T03:51:23;2.00;;;1.50;;
9801;SDS011;4940;50.900;4.672;2022-10-16T03:53:50;4.68;;;1.30;;
9801;SDS011;4940;50.900;4.672;2022-10-16T03:56:18;3.90;;;1.70;;
9801;SDS011;4940;50.900;4.672;2022-10-16T03:58:45;1.55;;;1.45;;
9801;SDS011;4940;50.900;4.672;2022-10-16T04:01:12;2.63;;;1.80;;
9801;SDS011;4940;50.900;4.672;2022-10-16T04:03:40;3.53;;;1.80;;
9801;SDS011;4940;50.900;4.672;2022-10-16T04:06:07;1.92;;;1.42;;
9801;SDS011;4940;50.900;4.672;2022-10-16T04:08:36;3.53;;;1.63;;
9801;SDS011;4940;50.900;4.672;2022-10-16T04:11:04;1.70;;;1.58;;
9801;SDS011;4940;50.900;4.672;2022-10-16T04:13:31;2.60;;;1.60;;
9801;SDS011;4940;50.900;4.672;2022-10-16T04:15:58;2.85;;;1.65;;
9801;SDS011;4940;50.900;4.672;2022-10-16T04:18:26;1.92;;;1.73;;
9801;SDS011;4940;50.900;4.672;2022-10-16T04:20:54;1.58;;;1.40;;
9801;SDS011;4940;50.900;4.672;2022-10-16T04:23:21;3.72;;;1.55;;
9801;SDS011;4940;50.900;4.672;2022-10-16T04:25:50;3.03;;;1.50;;
9801;SDS011;4940;50.900;4.672;2022-10-16T04:28:17;3.08;;;1.60;;
9801;SDS011;4940;50.900;4.672;2022-10-16T04:30:44;2.05;;;1.58;;
9801;SDS011;4940;50.900;4.672;2022-10-16T04:33:12;3.25;;;1.52;;
9801;SDS011;4940;50.900;4.672;2022-10-16T04:35:39;3.45;;;1.50;;
9801;SDS011;4940;50.900;4.672;2022-10-16T04:38:06;2.65;;;1.65;;
9801;SDS011;4940;50.900;4.672;2022-10-16T04:40:34;2.63;;;1.33;;
9801;SDS011;4940;50.900;4.672;2022-10-16T04:43:03;3.33;;;1.75;;
9801;SDS011;4940;50.900;4.672;2022-10-16T04:45:31;5.15;;;1.60;;
9801;SDS011;4940;50.900;4.672;2022-10-16T04:47:58;2.17;;;1.70;;
9801;SDS011;4940;50.900;4.672;2022-10-16T04:50:26;2.25;;;1.70;;
9801;SDS011;4940;50.900;4.672;2022-10-16T04:52:53;1.67;;;1.55;;
9801;SDS011;4940;50.900;4.672;2022-10-16T04:55:20;2.25;;;1.73;;
9801;SDS011;4940;50.900;4.672;2022-10-16T04:57:48;2.58;;;1.75;;
9801;SDS011;4940;50.900;4.672;2022-10-16T05:00:16;2.45;;;1.70;;
9801;SDS011;4940;50.900;4.672;2022-10-16T05:02:44;2.30;;;1.77;;
9801;SDS011;4940;50.900;4.672;2022-10-16T05:05:11;5.22;;;1.63;;
9801;SDS011;4940;50.900;4.672;2022-10-16T05:07:39;1.85;;;1.73;;
9801;SDS011;4940;50.900;4.672;2022-10-16T05:10:07;2.58;;;2.00;;
9801;SDS011;4940;50.900;4.672;2022-10-16T05:12:34;2.58;;;1.70;;
9801;SDS011;4940;50.900;4.672;2022-10-16T05:15:01;4.63;;;1.70;;
9801;SDS011;4940;50.900;4.672;2022-10-16T05:17:30;2.17;;;1.85;;
9801;SDS011;4940;50.900;4.672;2022-10-16T05:19:57;4.75;;;2.00;;
9801;SDS011;4940;50.900;4.672;2022-10-16T05:22:25;3.80;;;2.08;;
9801;SDS011;4940;50.900;4.672;2022-10-16T05:24:52;2.38;;;2.03;;
9801;SDS011;4940;50.900;4.672;2022-10-16T05:27:20;5.35;;;1.85;;
9801;SDS011;4940;50.900;4.672;2022-10-16T05:29:47;3.47;;;1.85;;
9801;SDS011;4940;50.900;4.672;2022-10-16T05:32:15;2.97;;;1.80;;
9801;SDS011;4940;50.900;4.672;2022-10-16T05:34:45;3.13;;;1.85;;
9801;SDS011;4940;50.900;4.672;2022-10-16T05:37:12;4.50;;;1.80;;
9801;SDS011;4940;50.900;4.672;2022-10-16T05:39:39;4.13;;;2.10;;
9801;SDS011;4940;50.900;4.672;2022-10-16T05:42:07;2.10;;;1.90;;
9801;SDS011;4940;50.900;4.672;2022-10-16T05:44:34;2.25;;;1.85;;
9801;SDS011;4940;50.900;4.672;2022-10-16T05:47:01;3.30;;;1.95;;
9801;SDS011;4940;50.900;4.672;2022-10-16T05:49:29;5.65;;;2.00;;
9801;SDS011;4940;50.900;4.672;2022-10-16T05:51:57;6.80;;;1.80;;
9801;SDS011;4940;50.900;4.672;2022-10-16T05:54:25;4.03;;;1.90;;
9801;SDS011;4940;50.900;4.672;2022-10-16T05:56:52;3.47;;;2.03;;
9801;SDS011;4940;50.900;4.672;2022-10-16T05:59:19;3.25;;;1.85;;
9801;SDS011;4940;50.900;4.672;2022-10-16T06:01:47;5.82;;;1.83;;
9801;SDS011;4940;50.900;4.672;2022-10-16T06:04:14;3.58;;;1.88;;
9801;SDS011;4940;50.900;4.672;2022-10-16T06:06:41;3.78;;;2.20;;
9801;SDS011;4940;50.900;4.672;2022-10-16T06:09:10;8.05;;;2.58;;
9801;SDS011;4940;50.900;4.672;2022-10-16T06:11:37;4.78;;;2.65;;
9801;SDS011;4940;50.900;4.672;2022-10-16T06:14:04;3.53;;;2.88;;
9801;SDS011;4940;50.900;4.672;2022-10-16T06:16:33;5.32;;;2.85;;
9801;SDS011;4940;50.900;4.672;2022-10-16T06:19:01;8.50;;;3.20;;
9801;SDS011;4940;50.900;4.672;2022-10-16T06:21:31;3.13;;;2.45;;
9801;SDS011;4940;50.900;4.672;2022-10-16T06:23:58;6.45;;;2.63;;
9801;SDS011;4940;50.900;4.672;2022-10-16T06:26:27;3.88;;;2.60;;
9801;SDS011;4940;50.900;4.672;2022-10-16T06:28:56;3.58;;;2.10;;
9801;SDS011;4940;50.900;4.672;2022-10-16T06:31:24;3.88;;;2.20;;
9801;SDS011;4940;50.900;4.672;2022-10-16T06:33:53;5.22;;;2.38;;
9801;SDS011;4940;50.900;4.672;2022-10-16T06:36:21;2.67;;;1.88;;
9801;SDS011;4940;50.900;4.672;2022-10-16T06:38:49;3.00;;;2.20;;
9801;SDS011;4940;50.900;4.672;2022-10-16T06:41:17;3.90;;;2.15;;
9801;SDS011;4940;50.900;4.672;2022-10-16T06:43:46;3.90;;;2.33;;
9801;SDS011;4940;50.900;4.672;2022-10-16T06:46:15;4.10;;;2.90;;
9801;SDS011;4940;50.900;4.672;2022-10-16T06:48:43;4.80;;;2.97;;
9801;SDS011;4940;50.900;4.672;2022-10-16T06:51:11;3.03;;;2.05;;
9801;SDS011;4940;50.900;4.672;2022-10-16T06:53:40;2.60;;;2.05;;
9801;SDS011;4940;50.900;4.672;2022-10-16T06:56:09;4.72;;;2.10;;
9801;SDS011;4940;50.900;4.672;2022-10-16T06:58:37;3.42;;;2.17;;
9801;SDS011;4940;50.900;4.672;2022-10-16T07:01:05;13.40;;;2.83;;
9801;SDS011;4940;50.900;4.672;2022-10-16T07:03:33;5.25;;;2.35;;
9801;SDS011;4940;50.900;4.672;2022-10-16T07:06:02;3.65;;;1.95;;
9801;SDS011;4940;50.900;4.672;2022-10-16T07:08:30;3.30;;;2.20;;
9801;SDS011;4940;50.900;4.672;2022-10-16T07:10:59;4.85;;;2.55;;
9801;SDS011;4940;50.900;4.672;2022-10-16T07:13:27;3.72;;;2.40;;
9801;SDS011;4940;50.900;4.672;2022-10-16T07:15:54;3.30;;;2.60;;
9801;SDS011;4940;50.900;4.672;2022-10-16T07:18:23;4.65;;;2.70;;
9801;SDS011;4940;50.900;4.672;2022-10-16T07:20:52;2.85;;;2.42;;
9801;SDS011;4940;50.900;4.672;2022-10-16T07:23:19;3.55;;;2.55;;
9801;SDS011;4940;50.900;4.672;2022-10-16T07:25:53;4.85;;;2.60;;
9801;SDS011;4940;50.900;4.672;2022-10-16T07:28:20;5.68;;;2.63;;
9801;SDS011;4940;50.900;4.672;2022-10-16T07:30:48;3.28;;;2.80;;
9801;SDS011;4940;50.900;4.672;2022-10-16T07:33:15;2.78;;;2.25;;
9801;SDS011;4940;50.900;4.672;2022-10-16T07:35:50;4.88;;;2.80;;
9801;SDS011;4940;50.900;4.672;2022-10-16T07:38:18;4.68;;;2.50;;
9801;SDS011;4940;50.900;4.672;2022-10-16T07:40:46;3.55;;;2.30;;
9801;SDS011;4940;50.900;4.672;2022-10-16T07:43:14;3.00;;;2.53;;
9801;SDS011;4940;50.900;4.672;2022-10-16T07:45:48;4.47;;;3.00;;
9801;SDS011;4940;50.900;4.672;2022-10-16T07:48:15;4.97;;;2.65;;
9801;SDS011;4940;50.900;4.672;2022-10-16T07:50:43;2.72;;;2.15;;
9801;SDS011;4940;50.900;4.672;2022-10-16T07:53:12;2.50;;;1.90;;
9801;SDS011;4940;50.900;4.672;2022-10-16T07:55:40;3.17;;;1.92;;
9801;SDS011;4940;50.900;4.672;2022-10-16T07:58:07;1.40;;;1.30;;
9801;SDS011;4940;50.900;4.672;2022-10-16T08:00:35;3.15;;;1.60;;
9801;SDS011;4940;50.900;4.672;2022-10-16T08:03:03;1.85;;;1.30;;
9801;SDS011;4940;50.900;4.672;2022-10-16T08:05:32;2.08;;;1.10;;
9801;SDS011;4940;50.900;4.672;2022-10-16T08:08:03;1.85;;;1.40;;
9801;SDS011;4940;50.900;4.672;2022-10-16T08:10:32;2.10;;;1.30;;
9801;SDS011;4940;50.900;4.672;2022-10-16T08:12:59;3.35;;;1.17;;
9801;SDS011;4940;50.900;4.672;2022-10-16T08:15:26;2.70;;;1.10;;
9801;SDS011;4940;50.900;4.672;2022-10-16T08:17:54;2.55;;;1.30;;
9801;SDS011;4940;50.900;4.672;2022-10-16T08:20:25;2.65;;;1.25;;
9801;SDS011;4940;50.900;4.672;2022-10-16T08:22:53;1.90;;;1.20;;
9801;SDS011;4940;50.900;4.672;2022-10-16T08:25:20;2.47;;;1.33;;
9801;SDS011;4940;50.900;4.672;2022-10-16T08:27:49;3.13;;;1.50;;
9801;SDS011;4940;50.900;4.672;2022-10-16T08:30:17;2.22;;;1.13;;
9801;SDS011;4940;50.900;4.672;2022-10-16T08:32:45;1.92;;;1.15;;
9801;SDS011;4940;50.900;4.672;2022-10-16T08:35:12;1.73;;;1.20;;
9801;SDS011;4940;50.900;4.672;2022-10-16T08:37:40;2.85;;;1.27;;
9801;SDS011;4940;50.900;4.672;2022-10-16T08:40:12;1.63;;;1.05;;
9801;SDS011;4940;50.900;4.672;2022-10-16T08:42:47;4.05;;;1.23;;
9801;SDS011;4940;50.900;4.672;2022-10-16T08:45:34;2.25;;;1.30;;
9801;SDS011;4940;50.900;4.672;2022-10-16T08:48:17;1.45;;;1.27;;
9801;SDS011;4940;50.900;4.672;2022-10-16T08:50:49;1.50;;;1.00;;
9801;SDS011;4940;50.900;4.672;2022-10-16T08:53:19;3.03;;;1.30;;
9801;SDS011;4940;50.900;4.672;2022-10-16T08:55:51;2.03;;;1.20;;
9801;SDS011;4940;50.900;4.672;2022-10-16T08:58:20;1.67;;;1.10;;
9801;SDS011;4940;50.900;4.672;2022-10-16T09:00:50;1.90;;;1.00;;
9801;SDS011;4940;50.900;4.672;2022-10-16T09:06:25;1.45;;;0.90;;
9801;SDS011;4940;50.900;4.672;2022-10-16T09:09:05;1.73;;;1.10;;
9801;SDS011;4940;50.900;4.672;2022-10-16T09:11:46;1.52;;;0.90;;
9801;SDS011;4940;50.900;4.672;2022-10-16T09:14:27;1.10;;;1.05;;
9801;SDS011;4940;50.900;4.672;2022-10-16T09:17:11;1.77;;;1.30;;
9801;SDS011;4940;50.900;4.672;2022-10-16T09:19:51;2.38;;;1.17;;
9801;SDS011;4940;50.900;4.672;2022-10-16T09:22:24;1.33;;;0.90;;
9801;SDS011;4940;50.900;4.672;2022-10-16T09:24:54;1.92;;;1.10;;
9801;SDS011;4940;50.900;4.672;2022-10-16T09:27:25;2.63;;;0.95;;
9801;SDS011;4940;50.900;4.672;2022-10-16T09:29:54;1.95;;;1.00;;
9801;SDS011;4940;50.900;4.672;2022-10-16T09:32:21;1.40;;;0.90;;
9801;SDS011;4940;50.900;4.672;2022-10-16T09:34:49;2.38;;;1.30;;
9801;SDS011;4940;50.900;4.672;2022-10-16T09:37:19;3.53;;;1.38;;
9801;SDS011;4940;50.900;4.672;2022-10-16T09:39:50;1.17;;;1.08;;
9801;SDS011;4940;50.900;4.672;2022-10-16T09:42:18;2.50;;;1.10;;
9801;SDS011;4940;50.900;4.672;2022-10-16T09:44:48;4.65;;;1.40;;
9801;SDS011;4940;50.900;4.672;2022-10-16T09:47:18;3.10;;;1.50;;
9801;SDS011;4940;50.900;4.672;2022-10-16T09:49:52;2.03;;;1.08;;
9801;SDS011;4940;50.900;4.672;2022-10-16T09:52:20;1.63;;;1.10;;
9801;SDS011;4940;50.900;4.672;2022-10-16T09:54:51;2.42;;;1.10;;
9801;SDS011;4940;50.900;4.672;2022-10-16T09:57:20;1.88;;;1.00;;
9801;SDS011;4940;50.900;4.672;2022-10-16T09:59:48;1.27;;;1.00;;
9801;SDS011;4940;50.900;4.672;2022-10-16T10:02:18;3.08;;;1.10;;
9801;SDS011;4940;50.900;4.672;2022-10-16T10:04:50;2.78;;;0.90;;
9801;SDS011;4940;50.900;4.672;2022-10-16T10:07:21;3.60;;;1.00;;
9801;SDS011;4940;50.900;4.672;2022-10-16T10:09:51;3.13;;;1.00;;
9801;SDS011;4940;50.900;4.672;2022-10-16T10:12:21;1.05;;;0.77;;
9801;SDS011;4940;50.900;4.672;2022-10-16T10:14:50;1.58;;;0.98;;
9801;SDS011;4940;50.900;4.672;2022-10-16T10:17:21;3.40;;;1.20;;
9801;SDS011;4940;50.900;4.672;2022-10-16T10:19:50;0.70;;;0.65;;
9801;SDS011;4940;50.900;4.672;2022-10-16T10:22:23;3.95;;;1.17;;
9801;SDS011;4940;50.900;4.672;2022-10-16T10:24:56;2.05;;;1.00;;
9801;SDS011;4940;50.900;4.672;2022-10-16T10:27:27;3.67;;;1.13;;
9801;SDS011;4940;50.900;4.672;2022-10-16T10:30:03;1.95;;;0.88;;
9801;SDS011;4940;50.900;4.672;2022-10-16T10:32:37;2.05;;;1.20;;
9801;SDS011;4940;50.900;4.672;2022-10-16T10:35:13;3.30;;;1.00;;
9801;SDS011;4940;50.900;4.672;2022-10-16T10:37:51;2.10;;;0.93;;
9801;SDS011;4940;50.900;4.672;2022-10-16T10:40:32;1.85;;;0.85;;
9801;SDS011;4940;50.900;4.672;2022-10-16T10:43:11;1.60;;;1.00;;
9801;SDS011;4940;50.900;4.672;2022-10-16T10:45:50;2.55;;;1.00;;
9801;SDS011;4940;50.900;4.672;2022-10-16T10:48:30;4.90;;;1.10;;
9801;SDS011;4940;50.900;4.672;2022-10-16T10:51:15;6.45;;;1.15;;
9801;SDS011;4940;50.900;4.672;2022-10-16T10:53:54;1.42;;;0.85;;
9801;SDS011;4940;50.900;4.672;2022-10-16T10:56:36;1.45;;;1.02;;
9801;SDS011;4940;50.900;4.672;2022-10-16T10:59:14;0.98;;;0.75;;
9801;SDS011;4940;50.900;4.672;2022-10-16T11:01:58;1.38;;;0.90;;
9801;SDS011;4940;50.900;4.672;2022-10-16T11:04:38;2.05;;;1.02;;
9801;SDS011;4940;50.900;4.672;2022-10-16T11:07:20;3.55;;;1.10;;
9801;SDS011;4940;50.900;4.672;2022-10-16T11:09:51;2.88;;;1.10;;
9801;SDS011;4940;50.900;4.672;2022-10-16T11:12:22;0.70;;;0.70;;
9801;SDS011;4940;50.900;4.672;2022-10-16T11:14:55;2.47;;;0.93;;
9801;SDS011;4940;50.900;4.672;2022-10-16T11:17:28;3.80;;;0.90;;
9801;SDS011;4940;50.900;4.672;2022-10-16T11:20:03;3.45;;;0.95;;
9801;SDS011;4940;50.900;4.672;2022-10-16T11:22:38;1.83;;;1.08;;
9801;SDS011;4940;50.900;4.672;2022-10-16T11:25:12;1.08;;;0.70;;
9801;SDS011;4940;50.900;4.672;2022-10-16T11:27:43;2.90;;;0.70;;
9801;SDS011;4940;50.900;4.672;2022-10-16T11:30:18;0.93;;;0.75;;
9801;SDS011;4940;50.900;4.672;2022-10-16T11:32:56;2.15;;;0.98;;
9801;SDS011;4940;50.900;4.672;2022-10-16T11:35:41;1.50;;;0.85;;
9801;SDS011;4940;50.900;4.672;2022-10-16T11:38:14;3.60;;;0.90;;
9801;SDS011;4940;50.900;4.672;2022-10-16T11:40:56;3.60;;;1.00;;
9801;SDS011;4940;50.900;4.672;2022-10-16T11:43:29;1.65;;;0.85;;
9801;SDS011;4940;50.900;4.672;2022-10-16T11:46:02;2.28;;;0.75;;
9801;SDS011;4940;50.900;4.672;2022-10-16T11:48:36;2.28;;;0.90;;
9801;SDS011;4940;50.900;4.672;2022-10-16T11:51:11;3.13;;;0.98;;
9801;SDS011;4940;50.900;4.672;2022-10-16T11:53:45;2.58;;;0.80;;
9801;SDS011;4940;50.900;4.672;2022-10-16T11:56:18;4.07;;;1.00;;
9801;SDS011;4940;50.900;4.672;2022-10-16T11:58:50;1.77;;;0.90;;
9801;SDS011;4940;50.900;4.672;2022-10-16T12:01:22;2.00;;;0.77;;
9801;SDS011;4940;50.900;4.672;2022-10-16T12:03:59;3.78;;;1.40;;
9801;SDS011;4940;50.900;4.672;2022-10-16T12:06:35;4.85;;;0.90;;
9801;SDS011;4940;50.900;4.672;2022-10-16T12:09:09;3.25;;;1.00;;
9801;SDS011;4940;50.900;4.672;2022-10-16T12:11:42;3.03;;;1.08;;
9801;SDS011;4940;50.900;4.672;2022-10-16T12:14:20;2.13;;;0.93;;
9801;SDS011;4940;50.900;4.672;2022-10-16T12:20:00;1.70;;;1.10;;
9801;SDS011;4940;50.900;4.672;2022-10-16T12:22:47;2.90;;;1.00;;
9801;SDS011;4940;50.900;4.672;2022-10-16T12:25:22;1.00;;;0.80;;
9801;SDS011;4940;50.900;4.672;2022-10-16T12:27:57;0.98;;;0.90;;
9801;SDS011;4940;50.900;4.672;2022-10-16T12:30:26;0.88;;;0.88;;
9801;SDS011;4940;50.900;4.672;2022-10-16T12:32:55;3.55;;;1.00;;
9801;SDS011;4940;50.900;4.672;2022-10-16T12:35:25;1.13;;;0.80;;
9801;SDS011;4940;50.900;4.672;2022-10-16T12:38:05;1.30;;;1.00;;
9801;SDS011;4940;50.900;4.672;2022-10-16T12:40:35;2.00;;;0.88;;
9801;SDS011;4940;50.900;4.672;2022-10-16T12:43:11;4.15;;;0.85;;
9801;SDS011;4940;50.900;4.672;2022-10-16T12:45:39;2.30;;;0.90;;
9801;SDS011;4940;50.900;4.672;2022-10-16T12:48:18;4.15;;;0.95;;
9801;SDS011;4940;50.900;4.672;2022-10-16T12:50:47;1.60;;;0.85;;
9801;SDS011;4940;50.900;4.672;2022-10-16T12:53:19;1.67;;;0.98;;
9801;SDS011;4940;50.900;4.672;2022-10-16T12:55:52;1.98;;;0.90;;
9801;SDS011;4940;50.900;4.672;2022-10-16T12:58:33;7.13;;;1.00;;
9801;SDS011;4940;50.900;4.672;2022-10-16T13:01:12;3.78;;;0.88;;
9801;SDS011;4940;50.900;4.672;2022-10-16T13:03:59;2.50;;;0.90;;
9801;SDS011;4940;50.900;4.672;2022-10-16T13:06:43;1.42;;;0.88;;
9801;SDS011;4940;50.900;4.672;2022-10-16T13:09:27;2.00;;;0.80;;
9801;SDS011;4940;50.900;4.672;2022-10-16T13:12:20;1.08;;;0.88;;
9801;SDS011;4940;50.900;4.672;2022-10-16T13:15:16;1.63;;;0.70;;
9801;SDS011;4940;50.900;4.672;2022-10-16T13:17:53;1.77;;;0.70;;
9801;SDS011;4940;50.900;4.672;2022-10-16T13:20:31;0.95;;;0.80;;
9801;SDS011;4940;50.900;4.672;2022-10-16T13:23:03;1.98;;;0.80;;
9801;SDS011;4940;50.900;4.672;2022-10-16T13:25:44;4.47;;;0.90;;
9801;SDS011;4940;50.900;4.672;2022-10-16T13:28:21;1.10;;;0.90;;
9801;SDS011;4940;50.900;4.672;2022-10-16T13:30:54;1.98;;;1.00;;
9801;SDS011;4940;50.900;4.672;2022-10-16T13:33:27;3.55;;;1.23;;
9801;SDS011;4940;50.900;4.672;2022-10-16T13:35:58;1.13;;;0.85;;
9801;SDS011;4940;50.900;4.672;2022-10-16T13:38:26;3.40;;;0.90;;
9801;SDS011;4940;50.900;4.672;2022-10-16T13:40:56;1.55;;;0.93;;
9801;SDS011;4940;50.900;4.672;2022-10-16T13:43:26;1.77;;;0.90;;
9801;SDS011;4940;50.900;4.672;2022-10-16T13:45:59;1.70;;;0.93;;
9801;SDS011;4940;50.900;4.672;2022-10-16T13:48:28;1.35;;;1.00;;
9801;SDS011;4940;50.900;4.672;2022-10-16T13:50:59;3.65;;;1.20;;
9801;SDS011;4940;50.900;4.672;2022-10-16T13:53:26;3.22;;;0.98;;
9801;SDS011;4940;50.900;4.672;2022-10-16T13:55:57;2.22;;;0.93;;
9801;SDS011;4940;50.900;4.672;2022-10-16T13:58:25;2.97;;;1.13;;
9801;SDS011;4940;50.900;4.672;2022-10-16T14:00:53;1.27;;;1.05;;
9801;SDS011;4940;50.900;4.672;2022-10-16T14:03:22;3.40;;;1.10;;
9801;SDS011;4940;50.900;4.672;2022-10-16T14:05:50;3.40;;;0.80;;
9801;SDS011;4940;50.900;4.672;2022-10-16T14:08:20;2.08;;;0.82;;
9801;SDS011;4940;50.900;4.672;2022-10-16T14:10:48;1.23;;;1.00;;
9801;SDS011;4940;50.900;4.672;2022-10-16T14:13:19;2.55;;;1.08;;
9801;SDS011;4940;50.900;4.672;2022-10-16T14:15:55;4.00;;;1.20;;
9801;SDS011;4940;50.900;4.672;2022-10-16T14:18:25;2.45;;;1.10;;
9801;SDS011;4940;50.900;4.672;2022-10-16T14:20:55;1.45;;;1.00;;
9801;SDS011;4940;50.900;4.672;2022-10-16T14:23:30;4.03;;;1.00;;
9801;SDS011;4940;50.900;4.672;2022-10-16T14:26:15;2.08;;;0.93;;
9801;SDS011;4940;50.900;4.672;2022-10-16T14:28:45;1.30;;;0.93;;
9801;SDS011;4940;50.900;4.672;2022-10-16T14:31:24;1.33;;;0.90;;
9801;SDS011;4940;50.900;4.672;2022-10-16T14:33:53;3.03;;;0.93;;
9801;SDS011;4940;50.900;4.672;2022-10-16T14:36:21;1.33;;;0.95;;
9801;SDS011;4940;50.900;4.672;2022-10-16T14:38:52;1.50;;;1.08;;
9801;SDS011;4940;50.900;4.672;2022-10-16T14:41:27;0.90;;;0.82;;
9801;SDS011;4940;50.900;4.672;2022-10-16T14:43:57;1.27;;;0.90;;
9801;SDS011;4940;50.900;4.672;2022-10-16T14:46:29;2.03;;;1.00;;
9801;SDS011;4940;50.900;4.672;2022-10-16T14:49:00;1.63;;;0.98;;
9801;SDS011;4940;50.900;4.672;2022-10-16T14:51:31;2.25;;;0.93;;
9801;SDS011;4940;50.900;4.672;2022-10-16T14:53:58;2.45;;;0.70;;
9801;SDS011;4940;50.900;4.672;2022-10-16T14:56:28;2.00;;;0.82;;
9801;SDS011;4940;50.900;4.672;2022-10-16T14:58:58;2.92;;;0.85;;
9801;SDS011;4940;50.900;4.672;2022-10-16T15:01:26;1.38;;;1.25;;
9801;SDS011;4940;50.900;4.672;2022-10-16T15:03:53;1.73;;;0.95;;
9801;SDS011;4940;50.900;4.672;2022-10-16T15:06:20;3.00;;;1.00;;
9801;SDS011;4940;50.900;4.672;2022-10-16T15:08:48;1.92;;;1.05;;
9801;SDS011;4940;50.900;4.672;2022-10-16T15:11:16;2.08;;;0.95;;
9801;SDS011;4940;50.900;4.672;2022-10-16T15:13:45;1.05;;;0.80;;
9801;SDS011;4940;50.900;4.672;2022-10-16T15:16:14;2.03;;;1.20;;
9801;SDS011;4940;50.900;4.672;2022-10-16T15:18:42;1.50;;;1.05;;
9801;SDS011;4940;50.900;4.672;2022-10-16T15:21:10;2.15;;;1.10;;
9801;SDS011;4940;50.900;4.672;2022-10-16T15:23:44;1.58;;;1.30;;
9801;SDS011;4940;50.900;4.672;2022-10-16T15:26:11;3.95;;;1.92;;
9801;SDS011;4940;50.900;4.672;2022-10-16T15:28:40;2.33;;;1.48;;
9801;SDS011;4940;50.900;4.672;2022-10-16T15:31:08;1.42;;;0.95;;
9801;SDS011;4940;50.900;4.672;2022-10-16T15:33:37;2.92;;;0.82;;
9801;SDS011;4940;50.900;4.672;2022-10-16T15:36:04;3.30;;;1.00;;
9801;SDS011;4940;50.900;4.672;2022-10-16T15:38:31;1.85;;;1.17;;
9801;SDS011;4940;50.900;4.672;2022-10-16T15:40:59;3.85;;;1.13;;
9801;SDS011;4940;50.900;4.672;2022-10-16T15:43:26;3.97;;;1.05;;